sensor_id;sensor_type;location;lat;lon;timestamp;P1;durP1;ratioP1;P2;durP2;ratioP2
44102;SDS011;29769;42.178;24.742;2023-02-15T00:00:49;20.92;;;13.43;;
44102;SDS011;29769;42.178;24.742;2023-02-15T00:03:34;23.55;;;12.90;;
44102;SDS011;29769;42.178;24.742;2023-02-15T00:06:19;22.73;;;13.32;;
44102;SDS011;29769;42.178;24.742;2023-02-15T00:11:49;26.17;;;14.60;;
44102;SDS011;29769;42.178;24.742;2023-02-15T00:17:19;25.15;;;14.25;;
44102;SDS011;29769;42.178;24.742;2023-02-15T00:20:04;22.45;;;12.90;;
44102;SDS011;29769;42.178;24.742;2023-02-15T00:22:49;27.77;;;13.27;;
44102;SDS011;29769;42.178;24.742;2023-02-15T00:25:34;22.95;;;13.77;;
44102;SDS011;29769;42.178;24.742;2023-02-15T00:28:19;28.25;;;15.38;;
44102;SDS011;29769;42.178;24.742;2023-02-15T00:31:08;23.33;;;14.95;;
44102;SDS011;29769;42.178;24.742;2023-02-15T00:33:54;26.52;;;14.85;;
44102;SDS011;29769;42.178;24.742;2023-02-15T00:36:39;28.92;;;14.90;;
44102;SDS011;29769;42.178;24.742;2023-02-15T00:39:24;26.20;;;13.70;;
44102;SDS011;29769;42.178;24.742;2023-02-15T00:42:09;27.80;;;15.52;;
44102;SDS011;29769;42.178;24.742;2023-02-15T00:44:54;26.27;;;14.85;;
44102;SDS011;29769;42.178;24.742;2023-02-15T00:47:39;31.13;;;16.75;;
44102;SDS011;29769;42.178;24.742;2023-02-15T00:50:24;34.00;;;17.40;;
44102;SDS011;29769;42.178;24.742;2023-02-15T00:53:09;32.30;;;17.33;;
44102;SDS011;29769;42.178;24.742;2023-02-15T00:55:54;30.33;;;15.10;;
44102;SDS011;29769;42.178;24.742;2023-02-15T00:58:40;31.67;;;15.93;;
44102;SDS011;29769;42.178;24.742;2023-02-15T01:01:27;30.50;;;17.33;;
44102;SDS011;29769;42.178;24.742;2023-02-15T01:04:12;32.83;;;17.25;;
44102;SDS011;29769;42.178;24.742;2023-02-15T01:06:57;27.60;;;16.85;;
44102;SDS011;29769;42.178;24.742;2023-02-15T01:09:42;30.88;;;15.45;;
44102;SDS011;29769;42.178;24.742;2023-02-15T01:12:27;28.08;;;16.52;;
44102;SDS011;29769;42.178;24.742;2023-02-15T01:15:12;30.25;;;18.65;;
44102;SDS011;29769;42.178;24.742;2023-02-15T01:17:57;25.20;;;15.57;;
44102;SDS011;29769;42.178;24.742;2023-02-15T01:20:41;28.27;;;16.02;;
44102;SDS011;29769;42.178;24.742;2023-02-15T01:26:11;29.48;;;15.98;;
44102;SDS011;29769;42.178;24.742;2023-02-15T01:28:57;27.17;;;14.27;;
44102;SDS011;29769;42.178;24.742;2023-02-15T01:31:42;30.27;;;16.52;;
44102;SDS011;29769;42.178;24.742;2023-02-15T01:34:29;25.95;;;15.82;;
44102;SDS011;29769;42.178;24.742;2023-02-15T01:37:15;29.85;;;16.77;;
44102;SDS011;29769;42.178;24.742;2023-02-15T01:40:04;28.35;;;17.55;;
44102;SDS011;29769;42.178;24.742;2023-02-15T01:42:51;28.20;;;14.50;;
44102;SDS011;29769;42.178;24.742;2023-02-15T01:45:37;26.95;;;15.98;;
44102;SDS011;29769;42.178;24.742;2023-02-15T01:48:23;26.52;;;15.73;;
44102;SDS011;29769;42.178;24.742;2023-02-15T01:51:12;31.55;;;17.13;;
44102;SDS011;29769;42.178;24.742;2023-02-15T01:54:41;31.88;;;16.65;;
44102;SDS011;29769;42.178;24.742;2023-02-15T01:57:17;29.17;;;17.25;;
44102;SDS011;29769;42.178;24.742;2023-02-15T02:00:06;29.65;;;17.13;;
44102;SDS011;29769;42.178;24.742;2023-02-15T02:02:57;29.17;;;16.20;;
44102;SDS011;29769;42.178;24.742;2023-02-15T02:05:43;30.08;;;16.48;;
44102;SDS011;29769;42.178;24.742;2023-02-15T02:08:31;31.70;;;16.02;;
44102;SDS011;29769;42.178;24.742;2023-02-15T02:11:16;29.27;;;16.85;;
44102;SDS011;29769;42.178;24.742;2023-02-15T02:14:04;32.95;;;16.77;;
44102;SDS011;29769;42.178;24.742;2023-02-15T02:23:00;31.08;;;16.88;;
44102;SDS011;29769;42.178;24.742;2023-02-15T02:42:11;35.80;;;18.77;;
44102;SDS011;29769;42.178;24.742;2023-02-15T02:45:02;33.58;;;18.48;;
44102;SDS011;29769;42.178;24.742;2023-02-15T02:48:06;38.00;;;19.67;;
44102;SDS011;29769;42.178;24.742;2023-02-15T02:50:56;38.75;;;18.75;;
44102;SDS011;29769;42.178;24.742;2023-02-15T02:53:41;35.10;;;18.70;;
44102;SDS011;29769;42.178;24.742;2023-02-15T02:56:30;36.85;;;19.02;;
44102;SDS011;29769;42.178;24.742;2023-02-15T02:59:21;39.78;;;19.52;;
44102;SDS011;29769;42.178;24.742;2023-02-15T03:02:21;42.47;;;20.83;;
44102;SDS011;29769;42.178;24.742;2023-02-15T03:05:14;33.78;;;17.55;;
44102;SDS011;29769;42.178;24.742;2023-02-15T03:08:03;36.05;;;18.70;;
44102;SDS011;29769;42.178;24.742;2023-02-15T03:10:51;38.58;;;17.75;;
44102;SDS011;29769;42.178;24.742;2023-02-15T03:13:38;40.10;;;19.40;;
44102;SDS011;29769;42.178;24.742;2023-02-15T03:16:25;31.42;;;18.45;;
44102;SDS011;29769;42.178;24.742;2023-02-15T03:19:15;35.80;;;18.23;;
44102;SDS011;29769;42.178;24.742;2023-02-15T03:22:29;37.58;;;18.00;;
44102;SDS011;29769;42.178;24.742;2023-02-15T03:25:22;36.75;;;18.77;;
44102;SDS011;29769;42.178;24.742;2023-02-15T03:28:13;39.28;;;17.92;;
44102;SDS011;29769;42.178;24.742;2023-02-15T03:31:04;35.17;;;16.98;;
44102;SDS011;29769;42.178;24.742;2023-02-15T03:33:53;33.85;;;17.67;;
44102;SDS011;29769;42.178;24.742;2023-02-15T03:39:35;39.50;;;18.40;;
44102;SDS011;29769;42.178;24.742;2023-02-15T03:42:31;40.80;;;18.85;;
44102;SDS011;29769;42.178;24.742;2023-02-15T03:45:25;38.53;;;20.33;;
44102;SDS011;29769;42.178;24.742;2023-02-15T03:48:11;42.28;;;19.85;;
44102;SDS011;29769;42.178;24.742;2023-02-15T03:50:58;40.80;;;19.25;;
44102;SDS011;29769;42.178;24.742;2023-02-15T03:54:19;42.33;;;20.88;;
44102;SDS011;29769;42.178;24.742;2023-02-15T03:57:28;34.90;;;17.60;;
44102;SDS011;29769;42.178;24.742;2023-02-15T04:00:31;35.00;;;19.52;;
44102;SDS011;29769;42.178;24.742;2023-02-15T04:03:52;34.38;;;18.23;;
44102;SDS011;29769;42.178;24.742;2023-02-15T04:06:41;38.22;;;20.20;;
44102;SDS011;29769;42.178;24.742;2023-02-15T04:09:26;34.40;;;17.45;;
44102;SDS011;29769;42.178;24.742;2023-02-15T04:12:30;33.65;;;17.55;;
44102;SDS011;29769;42.178;24.742;2023-02-15T04:15:15;32.67;;;17.63;;
44102;SDS011;29769;42.178;24.742;2023-02-15T04:18:18;32.35;;;16.98;;
44102;SDS011;29769;42.178;24.742;2023-02-15T04:21:03;33.67;;;18.67;;
44102;SDS011;29769;42.178;24.742;2023-02-15T04:24:07;30.63;;;16.52;;
44102;SDS011;29769;42.178;24.742;2023-02-15T04:27:11;30.85;;;17.65;;
44102;SDS011;29769;42.178;24.742;2023-02-15T04:29:56;33.85;;;18.15;;
44102;SDS011;29769;42.178;24.742;2023-02-15T04:32:41;33.85;;;18.30;;
44102;SDS011;29769;42.178;24.742;2023-02-15T04:35:26;32.28;;;16.98;;
44102;SDS011;29769;42.178;24.742;2023-02-15T04:38:11;34.22;;;18.10;;
44102;SDS011;29769;42.178;24.742;2023-02-15T04:40:55;38.53;;;17.45;;
44102;SDS011;29769;42.178;24.742;2023-02-15T04:43:40;36.97;;;18.00;;
44102;SDS011;29769;42.178;24.742;2023-02-15T04:46:26;32.80;;;17.23;;
44102;SDS011;29769;42.178;24.742;2023-02-15T04:49:11;31.77;;;16.67;;
44102;SDS011;29769;42.178;24.742;2023-02-15T04:51:56;33.13;;;17.52;;
44102;SDS011;29769;42.178;24.742;2023-02-15T04:54:41;32.75;;;17.10;;
44102;SDS011;29769;42.178;24.742;2023-02-15T04:57:26;31.15;;;17.25;;
44102;SDS011;29769;42.178;24.742;2023-02-15T05:00:11;27.77;;;16.52;;
44102;SDS011;29769;42.178;24.742;2023-02-15T05:02:55;31.50;;;17.25;;
44102;SDS011;29769;42.178;24.742;2023-02-15T05:05:40;33.03;;;17.67;;
44102;SDS011;29769;42.178;24.742;2023-02-15T05:08:25;30.38;;;16.67;;
44102;SDS011;29769;42.178;24.742;2023-02-15T05:11:10;35.40;;;17.38;;
44102;SDS011;29769;42.178;24.742;2023-02-15T05:13:54;34.58;;;18.33;;
44102;SDS011;29769;42.178;24.742;2023-02-15T05:16:39;47.05;;;19.75;;
44102;SDS011;29769;42.178;24.742;2023-02-15T05:19:24;33.90;;;19.33;;
44102;SDS011;29769;42.178;24.742;2023-02-15T05:22:09;35.63;;;17.35;;
44102;SDS011;29769;42.178;24.742;2023-02-15T05:24:54;30.80;;;17.42;;
44102;SDS011;29769;42.178;24.742;2023-02-15T05:27:57;30.80;;;16.33;;
44102;SDS011;29769;42.178;24.742;2023-02-15T05:31:08;31.98;;;17.02;;
44102;SDS011;29769;42.178;24.742;2023-02-15T05:33:55;31.83;;;18.67;;
44102;SDS011;29769;42.178;24.742;2023-02-15T05:36:41;37.35;;;18.35;;
44102;SDS011;29769;42.178;24.742;2023-02-15T05:39:25;37.53;;;18.17;;
44102;SDS011;29769;42.178;24.742;2023-02-15T05:42:10;30.90;;;16.85;;
44102;SDS011;29769;42.178;24.742;2023-02-15T05:44:55;29.73;;;16.48;;
44102;SDS011;29769;42.178;24.742;2023-02-15T05:47:40;29.77;;;16.70;;
44102;SDS011;29769;42.178;24.742;2023-02-15T05:50:26;31.52;;;17.95;;
44102;SDS011;29769;42.178;24.742;2023-02-15T05:53:11;30.30;;;16.65;;
44102;SDS011;29769;42.178;24.742;2023-02-15T05:55:55;32.20;;;16.50;;
44102;SDS011;29769;42.178;24.742;2023-02-15T05:58:43;30.73;;;16.63;;
44102;SDS011;29769;42.178;24.742;2023-02-15T06:01:28;28.65;;;16.60;;
44102;SDS011;29769;42.178;24.742;2023-02-15T06:04:13;27.20;;;16.00;;
44102;SDS011;29769;42.178;24.742;2023-02-15T06:06:58;31.33;;;17.95;;
44102;SDS011;29769;42.178;24.742;2023-02-15T06:09:42;31.77;;;17.05;;
44102;SDS011;29769;42.178;24.742;2023-02-15T06:12:28;28.08;;;16.52;;
44102;SDS011;29769;42.178;24.742;2023-02-15T06:15:12;30.73;;;17.05;;
44102;SDS011;29769;42.178;24.742;2023-02-15T06:17:58;32.97;;;18.25;;
44102;SDS011;29769;42.178;24.742;2023-02-15T06:20:45;30.75;;;17.85;;
44102;SDS011;29769;42.178;24.742;2023-02-15T06:23:30;29.33;;;17.42;;
44102;SDS011;29769;42.178;24.742;2023-02-15T06:26:15;29.75;;;18.20;;
44102;SDS011;29769;42.178;24.742;2023-02-15T06:29:00;31.23;;;18.30;;
44102;SDS011;29769;42.178;24.742;2023-02-15T06:31:44;27.75;;;17.88;;
44102;SDS011;29769;42.178;24.742;2023-02-15T06:34:29;26.73;;;16.75;;
44102;SDS011;29769;42.178;24.742;2023-02-15T06:37:14;26.40;;;17.15;;
44102;SDS011;29769;42.178;24.742;2023-02-15T06:39:59;27.58;;;16.42;;
44102;SDS011;29769;42.178;24.742;2023-02-15T06:42:44;28.92;;;18.58;;
44102;SDS011;29769;42.178;24.742;2023-02-15T06:48:13;25.40;;;15.77;;
44102;SDS011;29769;42.178;24.742;2023-02-15T06:50:58;34.15;;;17.60;;
44102;SDS011;29769;42.178;24.742;2023-02-15T06:53:43;28.23;;;16.40;;
44102;SDS011;29769;42.178;24.742;2023-02-15T06:56:29;24.02;;;16.60;;
44102;SDS011;29769;42.178;24.742;2023-02-15T06:59:14;26.48;;;15.13;;
44102;SDS011;29769;42.178;24.742;2023-02-15T07:01:59;25.35;;;15.90;;
44102;SDS011;29769;42.178;24.742;2023-02-15T07:04:43;27.98;;;15.13;;
44102;SDS011;29769;42.178;24.742;2023-02-15T07:07:28;25.75;;;16.25;;
44102;SDS011;29769;42.178;24.742;2023-02-15T07:10:13;23.50;;;14.95;;
44102;SDS011;29769;42.178;24.742;2023-02-15T07:12:58;24.33;;;15.32;;
44102;SDS011;29769;42.178;24.742;2023-02-15T07:15:43;25.42;;;15.65;;
44102;SDS011;29769;42.178;24.742;2023-02-15T07:21:14;35.67;;;15.13;;
44102;SDS011;29769;42.178;24.742;2023-02-15T07:23:59;29.45;;;17.02;;
44102;SDS011;29769;42.178;24.742;2023-02-15T07:26:44;25.85;;;17.38;;
44102;SDS011;29769;42.178;24.742;2023-02-15T07:29:29;25.02;;;15.95;;
44102;SDS011;29769;42.178;24.742;2023-02-15T07:32:14;21.60;;;16.08;;
44102;SDS011;29769;42.178;24.742;2023-02-15T07:34:59;23.35;;;15.18;;
44102;SDS011;29769;42.178;24.742;2023-02-15T07:37:44;28.40;;;18.35;;
44102;SDS011;29769;42.178;24.742;2023-02-15T07:40:28;25.83;;;16.77;;
44102;SDS011;29769;42.178;24.742;2023-02-15T07:43:13;32.45;;;17.35;;
44102;SDS011;29769;42.178;24.742;2023-02-15T07:46:02;25.50;;;15.70;;
44102;SDS011;29769;42.178;24.742;2023-02-15T07:48:48;30.00;;;17.50;;
44102;SDS011;29769;42.178;24.742;2023-02-15T07:51:33;26.85;;;15.45;;
44102;SDS011;29769;42.178;24.742;2023-02-15T07:57:03;25.27;;;16.45;;
44102;SDS011;29769;42.178;24.742;2023-02-15T07:59:48;23.75;;;17.73;;
44102;SDS011;29769;42.178;24.742;2023-02-15T08:02:33;23.88;;;15.48;;
44102;SDS011;29769;42.178;24.742;2023-02-15T08:05:21;27.83;;;17.30;;
44102;SDS011;29769;42.178;24.742;2023-02-15T08:08:07;29.58;;;18.00;;
44102;SDS011;29769;42.178;24.742;2023-02-15T08:10:52;24.17;;;17.05;;
44102;SDS011;29769;42.178;24.742;2023-02-15T08:13:56;26.00;;;16.15;;
44102;SDS011;29769;42.178;24.742;2023-02-15T08:16:51;23.92;;;15.75;;
44102;SDS011;29769;42.178;24.742;2023-02-15T08:19:37;28.33;;;16.83;;
44102;SDS011;29769;42.178;24.742;2023-02-15T08:22:22;22.45;;;15.95;;
44102;SDS011;29769;42.178;24.742;2023-02-15T08:25:07;27.45;;;16.25;;
44102;SDS011;29769;42.178;24.742;2023-02-15T08:27:52;23.95;;;16.50;;
44102;SDS011;29769;42.178;24.742;2023-02-15T08:30:36;26.50;;;16.23;;
44102;SDS011;29769;42.178;24.742;2023-02-15T08:33:21;26.38;;;15.85;;
44102;SDS011;29769;42.178;24.742;2023-02-15T08:38:58;23.60;;;15.60;;
44102;SDS011;29769;42.178;24.742;2023-02-15T08:41:45;22.38;;;16.42;;
44102;SDS011;29769;42.178;24.742;2023-02-15T08:44:30;22.23;;;15.35;;
44102;SDS011;29769;42.178;24.742;2023-02-15T08:47:15;22.20;;;15.55;;
44102;SDS011;29769;42.178;24.742;2023-02-15T08:50:00;21.95;;;15.02;;
44102;SDS011;29769;42.178;24.742;2023-02-15T08:52:45;23.65;;;15.68;;
44102;SDS011;29769;42.178;24.742;2023-02-15T08:55:30;21.77;;;15.45;;
44102;SDS011;29769;42.178;24.742;2023-02-15T09:01:00;24.48;;;16.02;;
44102;SDS011;29769;42.178;24.742;2023-02-15T09:03:47;22.45;;;15.75;;
44102;SDS011;29769;42.178;24.742;2023-02-15T09:06:34;26.52;;;16.30;;
44102;SDS011;29769;42.178;24.742;2023-02-15T09:09:20;24.00;;;16.40;;
44102;SDS011;29769;42.178;24.742;2023-02-15T09:12:05;23.38;;;16.92;;
44102;SDS011;29769;42.178;24.742;2023-02-15T09:17:35;23.85;;;15.77;;
44102;SDS011;29769;42.178;24.742;2023-02-15T09:20:19;22.60;;;15.40;;
44102;SDS011;29769;42.178;24.742;2023-02-15T09:23:04;24.10;;;16.45;;
44102;SDS011;29769;42.178;24.742;2023-02-15T09:25:49;22.67;;;16.10;;
44102;SDS011;29769;42.178;24.742;2023-02-15T09:28:34;20.98;;;14.82;;
44102;SDS011;29769;42.178;24.742;2023-02-15T09:31:20;29.77;;;15.60;;
44102;SDS011;29769;42.178;24.742;2023-02-15T09:34:06;20.35;;;14.77;;
44102;SDS011;29769;42.178;24.742;2023-02-15T09:39:37;19.65;;;14.02;;
44102;SDS011;29769;42.178;24.742;2023-02-15T09:45:30;18.70;;;13.93;;
44102;SDS011;29769;42.178;24.742;2023-02-15T09:48:23;31.60;;;15.30;;
44102;SDS011;29769;42.178;24.742;2023-02-15T09:51:18;22.80;;;15.35;;
44102;SDS011;29769;42.178;24.742;2023-02-15T10:00:40;19.48;;;13.90;;
44102;SDS011;29769;42.178;24.742;2023-02-15T10:13:31;16.88;;;12.25;;
44102;SDS011;29769;42.178;24.742;2023-02-15T10:16:28;15.65;;;13.02;;
44102;SDS011;29769;42.178;24.742;2023-02-15T10:19:32;18.73;;;12.57;;
44102;SDS011;29769;42.178;24.742;2023-02-15T10:34:38;14.48;;;11.32;;
44102;SDS011;29769;42.178;24.742;2023-02-15T10:40:46;13.48;;;11.55;;
44102;SDS011;29769;42.178;24.742;2023-02-15T10:44:04;20.42;;;12.00;;
44102;SDS011;29769;42.178;24.742;2023-02-15T10:56:36;25.88;;;14.88;;
44102;SDS011;29769;42.178;24.742;2023-02-15T11:08:59;14.27;;;11.63;;
44102;SDS011;29769;42.178;24.742;2023-02-15T11:11:48;33.90;;;14.27;;
44102;SDS011;29769;42.178;24.742;2023-02-15T11:17:33;20.52;;;12.15;;
44102;SDS011;29769;42.178;24.742;2023-02-15T11:20:24;16.13;;;11.20;;
44102;SDS011;29769;42.178;24.742;2023-02-15T11:23:14;12.80;;;11.05;;
44102;SDS011;29769;42.178;24.742;2023-02-15T11:26:02;15.00;;;12.15;;
44102;SDS011;29769;42.178;24.742;2023-02-15T11:28:51;13.40;;;10.60;;
44102;SDS011;29769;42.178;24.742;2023-02-15T11:31:49;23.63;;;11.32;;
44102;SDS011;29769;42.178;24.742;2023-02-15T11:34:37;29.50;;;11.85;;
44102;SDS011;29769;42.178;24.742;2023-02-15T11:40:48;19.38;;;11.30;;
44102;SDS011;29769;42.178;24.742;2023-02-15T11:46:38;13.80;;;10.55;;
44102;SDS011;29769;42.178;24.742;2023-02-15T11:52:14;32.28;;;18.70;;
44102;SDS011;29769;42.178;24.742;2023-02-15T11:55:01;18.10;;;13.18;;
44102;SDS011;29769;42.178;24.742;2023-02-15T11:57:49;19.05;;;12.20;;
44102;SDS011;29769;42.178;24.742;2023-02-15T12:00:41;13.88;;;11.00;;
44102;SDS011;29769;42.178;24.742;2023-02-15T12:03:50;12.43;;;11.05;;
44102;SDS011;29769;42.178;24.742;2023-02-15T12:06:44;15.77;;;10.80;;
44102;SDS011;29769;42.178;24.742;2023-02-15T12:12:35;12.50;;;10.77;;
44102;SDS011;29769;42.178;24.742;2023-02-15T12:15:29;12.48;;;10.75;;
44102;SDS011;29769;42.178;24.742;2023-02-15T12:21:30;12.20;;;10.23;;
44102;SDS011;29769;42.178;24.742;2023-02-15T12:24:22;12.07;;;10.18;;
44102;SDS011;29769;42.178;24.742;2023-02-15T12:30:01;13.07;;;10.77;;
44102;SDS011;29769;42.178;24.742;2023-02-15T12:32:56;15.68;;;11.35;;
44102;SDS011;29769;42.178;24.742;2023-02-15T12:35:47;19.15;;;13.48;;
44102;SDS011;29769;42.178;24.742;2023-02-15T12:38:39;15.38;;;10.95;;
44102;SDS011;29769;42.178;24.742;2023-02-15T12:41:25;12.15;;;9.73;;
44102;SDS011;29769;42.178;24.742;2023-02-15T12:44:17;11.02;;;9.23;;
44102;SDS011;29769;42.178;24.742;2023-02-15T12:47:05;15.98;;;10.60;;
44102;SDS011;29769;42.178;24.742;2023-02-15T12:50:05;13.70;;;9.98;;
44102;SDS011;29769;42.178;24.742;2023-02-15T12:53:04;14.10;;;9.60;;
44102;SDS011;29769;42.178;24.742;2023-02-15T12:56:03;14.55;;;10.25;;
44102;SDS011;29769;42.178;24.742;2023-02-15T12:58:50;13.13;;;10.10;;
44102;SDS011;29769;42.178;24.742;2023-02-15T13:01:50;12.88;;;10.55;;
44102;SDS011;29769;42.178;24.742;2023-02-15T13:04:37;17.48;;;9.68;;
44102;SDS011;29769;42.178;24.742;2023-02-15T13:07:32;21.98;;;9.32;;
44102;SDS011;29769;42.178;24.742;2023-02-15T13:10:25;12.30;;;9.77;;
44102;SDS011;29769;42.178;24.742;2023-02-15T13:13:17;14.88;;;9.80;;
44102;SDS011;29769;42.178;24.742;2023-02-15T13:16:09;11.45;;;8.70;;
44102;SDS011;29769;42.178;24.742;2023-02-15T13:18:56;13.55;;;9.10;;
44102;SDS011;29769;42.178;24.742;2023-02-15T13:21:44;12.57;;;9.18;;
44102;SDS011;29769;42.178;24.742;2023-02-15T13:24:35;15.85;;;9.20;;
44102;SDS011;29769;42.178;24.742;2023-02-15T13:27:25;16.40;;;9.00;;
44102;SDS011;29769;42.178;24.742;2023-02-15T13:30:26;16.02;;;9.73;;
44102;SDS011;29769;42.178;24.742;2023-02-15T13:33:22;12.07;;;8.85;;
44102;SDS011;29769;42.178;24.742;2023-02-15T13:39:14;18.27;;;9.52;;
44102;SDS011;29769;42.178;24.742;2023-02-15T13:42:19;20.40;;;9.07;;
44102;SDS011;29769;42.178;24.742;2023-02-15T13:45:36;10.27;;;8.90;;
44102;SDS011;29769;42.178;24.742;2023-02-15T13:58:42;14.52;;;9.15;;
44102;SDS011;29769;42.178;24.742;2023-02-15T14:01:45;12.38;;;9.02;;
44102;SDS011;29769;42.178;24.742;2023-02-15T14:20:01;15.65;;;9.82;;
44102;SDS011;29769;42.178;24.742;2023-02-15T14:23:04;25.75;;;9.43;;
44102;SDS011;29769;42.178;24.742;2023-02-15T14:26:04;12.52;;;9.93;;
44102;SDS011;29769;42.178;24.742;2023-02-15T14:31:55;13.20;;;8.77;;
44102;SDS011;29769;42.178;24.742;2023-02-15T14:35:21;12.55;;;9.40;;
44102;SDS011;29769;42.178;24.742;2023-02-15T14:40:54;13.40;;;10.63;;
44102;SDS011;29769;42.178;24.742;2023-02-15T14:46:55;26.65;;;11.10;;
44102;SDS011;29769;42.178;24.742;2023-02-15T14:49:41;13.55;;;9.48;;
44102;SDS011;29769;42.178;24.742;2023-02-15T14:52:26;20.65;;;9.88;;
44102;SDS011;29769;42.178;24.742;2023-02-15T14:55:11;12.45;;;9.48;;
44102;SDS011;29769;42.178;24.742;2023-02-15T14:58:20;14.20;;;10.90;;
44102;SDS011;29769;42.178;24.742;2023-02-15T15:03:55;19.60;;;9.65;;
44102;SDS011;29769;42.178;24.742;2023-02-15T15:06:44;21.20;;;10.45;;
44102;SDS011;29769;42.178;24.742;2023-02-15T15:09:29;13.90;;;9.50;;
44102;SDS011;29769;42.178;24.742;2023-02-15T15:18:08;13.27;;;9.02;;
44102;SDS011;29769;42.178;24.742;2023-02-15T15:20:55;11.30;;;9.10;;
44102;SDS011;29769;42.178;24.742;2023-02-15T15:23:41;14.60;;;8.93;;
44102;SDS011;29769;42.178;24.742;2023-02-15T15:26:29;21.23;;;9.68;;
44102;SDS011;29769;42.178;24.742;2023-02-15T15:29:28;40.00;;;12.25;;
44102;SDS011;29769;42.178;24.742;2023-02-15T15:32:26;38.78;;;11.00;;
44102;SDS011;29769;42.178;24.742;2023-02-15T15:41:41;23.85;;;11.73;;
44102;SDS011;29769;42.178;24.742;2023-02-15T15:50:40;52.72;;;13.60;;
44102;SDS011;29769;42.178;24.742;2023-02-15T15:53:27;25.45;;;9.70;;
44102;SDS011;29769;42.178;24.742;2023-02-15T15:56:18;37.50;;;13.88;;
44102;SDS011;29769;42.178;24.742;2023-02-15T15:59:06;25.70;;;10.98;;
44102;SDS011;29769;42.178;24.742;2023-02-15T16:02:03;45.20;;;12.70;;
44102;SDS011;29769;42.178;24.742;2023-02-15T16:04:51;23.85;;;10.40;;
44102;SDS011;29769;42.178;24.742;2023-02-15T16:07:36;37.55;;;13.13;;
44102;SDS011;29769;42.178;24.742;2023-02-15T16:10:26;43.28;;;13.82;;
44102;SDS011;29769;42.178;24.742;2023-02-15T16:13:13;46.47;;;12.48;;
44102;SDS011;29769;42.178;24.742;2023-02-15T16:15:58;40.70;;;12.75;;
44102;SDS011;29769;42.178;24.742;2023-02-15T16:18:44;30.77;;;16.08;;
44102;SDS011;29769;42.178;24.742;2023-02-15T16:21:31;44.20;;;20.50;;
44102;SDS011;29769;42.178;24.742;2023-02-15T16:24:30;42.58;;;16.55;;
44102;SDS011;29769;42.178;24.742;2023-02-15T16:30:31;53.92;;;24.65;;
44102;SDS011;29769;42.178;24.742;2023-02-15T16:33:18;96.43;;;29.27;;
44102;SDS011;29769;42.178;24.742;2023-02-15T16:36:05;85.53;;;23.27;;
44102;SDS011;29769;42.178;24.742;2023-02-15T16:41:41;27.13;;;14.32;;
44102;SDS011;29769;42.178;24.742;2023-02-15T16:44:30;43.08;;;21.40;;
44102;SDS011;29769;42.178;24.742;2023-02-15T16:50:20;32.92;;;16.60;;
44102;SDS011;29769;42.178;24.742;2023-02-15T16:53:13;68.43;;;24.38;;
44102;SDS011;29769;42.178;24.742;2023-02-15T16:56:03;52.65;;;21.35;;
44102;SDS011;29769;42.178;24.742;2023-02-15T16:58:49;62.15;;;20.80;;
44102;SDS011;29769;42.178;24.742;2023-02-15T17:01:36;89.07;;;33.05;;
44102;SDS011;29769;42.178;24.742;2023-02-15T17:07:13;45.38;;;17.52;;
44102;SDS011;29769;42.178;24.742;2023-02-15T17:10:02;35.40;;;14.30;;
44102;SDS011;29769;42.178;24.742;2023-02-15T17:12:47;26.80;;;14.05;;
44102;SDS011;29769;42.178;24.742;2023-02-15T17:16:08;24.90;;;14.63;;
44102;SDS011;29769;42.178;24.742;2023-02-15T17:18:46;29.88;;;15.07;;
44102;SDS011;29769;42.178;24.742;2023-02-15T17:21:32;29.92;;;13.75;;
44102;SDS011;29769;42.178;24.742;2023-02-15T17:24:28;30.65;;;13.73;;
44102;SDS011;29769;42.178;24.742;2023-02-15T17:27:18;29.23;;;14.98;;
44102;SDS011;29769;42.178;24.742;2023-02-15T17:30:13;25.17;;;14.55;;
44102;SDS011;29769;42.178;24.742;2023-02-15T17:33:05;25.20;;;14.82;;
44102;SDS011;29769;42.178;24.742;2023-02-15T17:39:21;29.27;;;14.82;;
44102;SDS011;29769;42.178;24.742;2023-02-15T17:42:06;29.83;;;15.02;;
44102;SDS011;29769;42.178;24.742;2023-02-15T17:44:51;26.63;;;15.75;;
44102;SDS011;29769;42.178;24.742;2023-02-15T17:47:36;28.38;;;16.33;;
44102;SDS011;29769;42.178;24.742;2023-02-15T17:50:22;29.48;;;16.85;;
44102;SDS011;29769;42.178;24.742;2023-02-15T17:53:08;33.17;;;17.45;;
44102;SDS011;29769;42.178;24.742;2023-02-15T17:55:53;29.48;;;17.27;;
44102;SDS011;29769;42.178;24.742;2023-02-15T17:58:38;30.80;;;16.73;;
44102;SDS011;29769;42.178;24.742;2023-02-15T18:01:23;29.30;;;16.33;;
44102;SDS011;29769;42.178;24.742;2023-02-15T18:04:27;27.67;;;16.92;;
44102;SDS011;29769;42.178;24.742;2023-02-15T18:07:30;27.83;;;16.65;;
44102;SDS011;29769;42.178;24.742;2023-02-15T18:10:34;36.50;;;17.65;;
44102;SDS011;29769;42.178;24.742;2023-02-15T18:13:37;28.88;;;16.60;;
44102;SDS011;29769;42.178;24.742;2023-02-15T18:16:23;57.97;;;26.00;;
44102;SDS011;29769;42.178;24.742;2023-02-15T18:19:17;47.85;;;21.40;;
44102;SDS011;29769;42.178;24.742;2023-02-15T18:22:08;42.88;;;22.13;;
44102;SDS011;29769;42.178;24.742;2023-02-15T18:24:55;46.17;;;21.35;;
44102;SDS011;29769;42.178;24.742;2023-02-15T18:27:40;54.60;;;23.73;;
44102;SDS011;29769;42.178;24.742;2023-02-15T18:30:24;51.80;;;23.60;;
44102;SDS011;29769;42.178;24.742;2023-02-15T18:36:29;47.22;;;22.02;;
44102;SDS011;29769;42.178;24.742;2023-02-15T18:42:24;63.53;;;28.40;;
44102;SDS011;29769;42.178;24.742;2023-02-15T18:45:18;67.15;;;29.10;;
44102;SDS011;29769;42.178;24.742;2023-02-15T18:48:04;47.38;;;21.67;;
44102;SDS011;29769;42.178;24.742;2023-02-15T18:50:52;57.28;;;24.10;;
44102;SDS011;29769;42.178;24.742;2023-02-15T18:53:36;60.80;;;25.75;;
44102;SDS011;29769;42.178;24.742;2023-02-15T18:56:21;49.25;;;24.10;;
44102;SDS011;29769;42.178;24.742;2023-02-15T18:59:11;42.53;;;21.95;;
44102;SDS011;29769;42.178;24.742;2023-02-15T19:02:00;48.97;;;21.98;;
44102;SDS011;29769;42.178;24.742;2023-02-15T19:04:45;39.00;;;20.15;;
44102;SDS011;29769;42.178;24.742;2023-02-15T19:07:30;41.60;;;20.08;;
44102;SDS011;29769;42.178;24.742;2023-02-15T19:10:18;46.83;;;20.98;;
44102;SDS011;29769;42.178;24.742;2023-02-15T19:13:11;47.42;;;23.40;;
44102;SDS011;29769;42.178;24.742;2023-02-15T19:15:56;47.17;;;20.55;;
44102;SDS011;29769;42.178;24.742;2023-02-15T19:18:43;43.55;;;22.48;;
44102;SDS011;29769;42.178;24.742;2023-02-15T19:21:29;42.50;;;20.83;;
44102;SDS011;29769;42.178;24.742;2023-02-15T19:24:17;46.05;;;22.05;;
44102;SDS011;29769;42.178;24.742;2023-02-15T19:27:50;46.28;;;21.98;;
44102;SDS011;29769;42.178;24.742;2023-02-15T19:30:19;36.58;;;20.63;;
44102;SDS011;29769;42.178;24.742;2023-02-15T19:33:14;42.75;;;21.45;;
44102;SDS011;29769;42.178;24.742;2023-02-15T19:36:01;44.08;;;23.10;;
44102;SDS011;29769;42.178;24.742;2023-02-15T19:38:46;45.70;;;24.15;;
44102;SDS011;29769;42.178;24.742;2023-02-15T19:41:35;52.58;;;24.73;;
44102;SDS011;29769;42.178;24.742;2023-02-15T19:44:22;47.38;;;24.13;;
44102;SDS011;29769;42.178;24.742;2023-02-15T19:47:09;45.58;;;24.65;;